createdAt,value
2022-11-24T00:00:50.515Z,49.47
2022-11-24T00:03:58.309Z,53.97
2022-11-24T00:07:01.231Z,50.75
2022-11-24T00:10:04.818Z,54.92
2022-11-24T00:13:07.726Z,56.53
2022-11-24T00:16:14.918Z,49.73
2022-11-24T00:19:19.863Z,60.50
2022-11-24T00:22:22.992Z,59.83
2022-11-24T00:25:25.848Z,57.62
2022-11-24T00:28:28.775Z,59.90
2022-11-24T00:31:35.529Z,60.53
2022-11-24T00:34:38.817Z,57.07
2022-11-24T00:37:41.672Z,57.38
2022-11-24T00:40:46.018Z,62.95
2022-11-24T00:43:49.132Z,62.15
2022-11-24T00:46:52.112Z,59.23
2022-11-24T00:49:55.052Z,62.20
2022-11-24T00:52:57.954Z,60.92
2022-11-24T00:56:01.037Z,61.28
2022-11-24T00:59:04.383Z,63.35
2022-11-24T01:02:07.827Z,51.37
2022-11-24T01:05:11.464Z,63.27
2022-11-24T01:08:15.246Z,62.70
2022-11-24T01:11:27.187Z,64.75
2022-11-24T01:14:32.156Z,63.65
2022-11-24T01:17:35.230Z,62.83
2022-11-24T01:20:38.985Z,61.33
2022-11-24T01:23:42.076Z,62.30
2022-11-24T01:26:45.120Z,65.85
2022-11-24T01:29:48.120Z,67.47
2022-11-24T01:32:50.995Z,65.70
2022-11-24T01:35:53.941Z,66.87
2022-11-24T01:38:56.872Z,66.07
2022-11-24T01:42:02.442Z,69.18
2022-11-24T01:45:33.246Z,66.40
2022-11-24T01:48:44.036Z,59.70
2022-11-24T01:51:55.406Z,66.53
2022-11-24T01:55:06.538Z,61.78
2022-11-24T01:58:19.932Z,61.05
2022-11-24T02:01:23.197Z,71.43
2022-11-24T02:04:29.249Z,74.53
2022-11-24T02:07:32.621Z,66.23
2022-11-24T02:10:35.857Z,67.78
2022-11-24T02:13:39.669Z,63.97
2022-11-24T02:16:44.911Z,71.10
2022-11-24T02:19:55.954Z,66.93
2022-11-24T02:23:21.097Z,63.20
2022-11-24T02:26:41.859Z,64.97
2022-11-24T02:29:45.006Z,58.63
2022-11-24T02:32:47.965Z,56.60
2022-11-24T02:35:51.171Z,49.63
2022-11-24T02:38:54.220Z,44.90
2022-11-24T02:42:15.357Z,43.92
2022-11-24T02:45:19.018Z,37.30
2022-11-24T02:48:21.949Z,31.05
2022-11-24T02:51:25.155Z,30.20
2022-11-24T02:54:28.717Z,30.50
2022-11-24T02:57:31.905Z,26.98
2022-11-24T03:00:35.287Z,30.80
2022-11-24T03:03:38.345Z,29.95
2022-11-24T03:06:41.344Z,32.93
2022-11-24T03:09:44.448Z,31.73
2022-11-24T03:12:47.394Z,35.17
2022-11-24T03:15:50.316Z,38.30
2022-11-24T03:18:53.785Z,40.65
2022-11-24T03:21:56.745Z,40.40
2022-11-24T03:24:59.728Z,49.80
2022-11-24T03:28:02.745Z,52.88
2022-11-24T03:31:07.498Z,60.67
2022-11-24T03:34:10.858Z,64.40
2022-11-24T03:37:13.823Z,66.47
2022-11-24T03:40:18.420Z,63.77
2022-11-24T03:43:21.326Z,67.18
2022-11-24T03:46:24.325Z,70.30
2022-11-24T03:49:27.753Z,71.40
2022-11-24T03:52:30.666Z,63.47
2022-11-24T03:55:33.567Z,68.03
2022-11-24T03:58:36.805Z,69.72
2022-11-24T04:01:40.316Z,67.10
2022-11-24T04:04:48.460Z,73.78
2022-11-24T04:07:57.187Z,68.93
2022-11-24T04:11:00.195Z,74.33
2022-11-24T04:14:02.997Z,69.47
2022-11-24T04:17:05.909Z,70.05
2022-11-24T04:20:09.919Z,73.95
2022-11-24T04:23:12.945Z,76.00
2022-11-24T04:26:15.811Z,75.10
2022-11-24T04:29:19.083Z,70.95
2022-11-24T04:32:21.942Z,74.65
2022-11-24T04:35:25.463Z,74.40
2022-11-24T04:39:23.121Z,68.37
2022-11-24T04:41:51.537Z,69.57
2022-11-24T04:44:54.439Z,68.62
2022-11-24T04:47:57.459Z,75.95
2022-11-24T04:51:00.328Z,69.62
2022-11-24T04:54:03.356Z,60.10
2022-11-24T04:57:06.388Z,61.50
2022-11-24T05:00:10.000Z,56.20
2022-11-24T05:03:12.984Z,63.38
2022-11-24T05:06:16.015Z,54.65
2022-11-24T05:09:19.133Z,47.83
2022-11-24T05:12:22.417Z,52.33
2022-11-24T05:15:26.235Z,47.30
2022-11-24T05:18:29.259Z,41.63
2022-11-24T05:21:32.352Z,45.33
2022-11-24T05:24:35.524Z,43.23
2022-11-24T05:27:38.512Z,38.63
2022-11-24T05:30:42.112Z,38.42
2022-11-24T05:33:46.022Z,40.08
2022-11-24T05:36:54.850Z,40.60
2022-11-24T05:39:57.977Z,35.97
2022-11-24T05:43:00.888Z,34.63
2022-11-24T05:46:03.803Z,33.90
2022-11-24T05:49:06.832Z,33.20
2022-11-24T05:52:09.888Z,41.30
2022-11-24T05:55:14.976Z,35.83
2022-11-24T05:58:17.877Z,37.83
2022-11-24T06:01:20.963Z,37.38
2022-11-24T06:04:23.963Z,42.75
2022-11-24T06:07:26.851Z,37.88
2022-11-24T06:10:29.942Z,41.50
2022-11-24T06:13:32.870Z,39.03
2022-11-24T06:16:36.758Z,36.60
2022-11-24T06:19:42.125Z,37.00
2022-11-24T06:22:45.437Z,37.50
2022-11-24T06:25:51.473Z,35.20
2022-11-24T06:28:54.768Z,33.37
2022-11-24T06:31:58.163Z,35.15
2022-11-24T06:35:01.062Z,33.28
2022-11-24T06:38:05.601Z,35.15
2022-11-24T06:41:12.794Z,34.03
2022-11-24T06:44:15.905Z,32.40
2022-11-24T06:47:18.989Z,29.83
2022-11-24T06:50:22.184Z,32.53
2022-11-24T06:53:25.639Z,27.25
2022-11-24T06:56:28.508Z,29.50
2022-11-24T06:59:31.474Z,29.90
2022-11-24T07:02:35.057Z,29.73
2022-11-24T07:05:38.766Z,30.92
2022-11-24T07:08:41.672Z,30.90
2022-11-24T07:11:44.647Z,25.67
2022-11-24T07:14:47.588Z,30.50
2022-11-24T07:17:50.519Z,28.98
2022-11-24T07:20:53.314Z,27.40
2022-11-24T07:23:57.174Z,28.10
2022-11-24T07:27:00.022Z,23.57
2022-11-24T07:30:04.674Z,22.47
2022-11-24T07:33:07.583Z,23.45
2022-11-24T07:36:10.590Z,25.92
2022-11-24T07:39:13.644Z,26.70
2022-11-24T07:42:17.566Z,25.43
2022-11-24T07:45:21.366Z,23.67
2022-11-24T07:48:24.899Z,23.23
2022-11-24T07:51:28.206Z,23.38
2022-11-24T07:54:31.903Z,21.50
2022-11-24T07:57:35.257Z,23.17
2022-11-24T08:00:38.305Z,23.13
2022-11-24T08:03:42.097Z,20.80
2022-11-24T08:06:47.508Z,19.48
2022-11-24T08:09:52.737Z,19.27
2022-11-24T08:12:56.052Z,20.27
2022-11-24T08:16:00.100Z,18.60
2022-11-24T08:19:03.763Z,18.00
2022-11-24T08:22:06.866Z,21.23
2022-11-24T08:25:10.097Z,19.65
2022-11-24T08:28:17.465Z,20.30
2022-11-24T08:31:21.085Z,21.33
2022-11-24T08:34:28.004Z,20.50
2022-11-24T08:37:31.309Z,18.77
2022-11-24T08:40:34.456Z,18.27
2022-11-24T08:43:37.617Z,18.07
2022-11-24T08:46:41.091Z,16.47
2022-11-24T08:49:44.682Z,18.23
2022-11-24T08:52:47.957Z,17.12
2022-11-24T08:55:51.761Z,15.30
2022-11-24T08:58:56.543Z,15.50
2022-11-24T09:01:59.725Z,14.40
2022-11-24T09:05:03.296Z,17.55
2022-11-24T09:08:06.237Z,15.88
2022-11-24T09:11:14.670Z,13.32
2022-11-24T09:14:17.566Z,13.27
2022-11-24T09:17:20.644Z,15.03
2022-11-24T09:23:44.991Z,14.80
2022-11-24T09:26:48.091Z,15.15
2022-11-24T09:29:50.939Z,14.87
2022-11-24T09:32:56.439Z,13.33
2022-11-24T09:36:00.741Z,13.98
2022-11-24T09:39:04.237Z,13.60
2022-11-24T09:42:25.664Z,15.60
2022-11-24T09:46:05.147Z,13.60
2022-11-24T09:49:14.839Z,13.90
2022-11-24T09:52:23.759Z,14.02
2022-11-24T09:55:49.156Z,11.85
2022-11-24T09:58:55.268Z,14.95
2022-11-24T10:01:58.299Z,12.23
2022-11-24T10:05:01.339Z,12.23
2022-11-24T10:08:17.505Z,14.07
2022-11-24T10:11:34.033Z,12.25
2022-11-24T10:14:47.691Z,14.98
2022-11-24T10:18:00.504Z,12.87
2022-11-24T10:21:19.392Z,14.30
2022-11-24T10:24:37.823Z,15.32
2022-11-24T10:27:45.140Z,13.52
2022-11-24T10:30:48.449Z,10.95
2022-11-24T10:33:51.817Z,13.27
2022-11-24T10:37:22.225Z,12.30
2022-11-24T10:40:57.021Z,12.50
2022-11-24T10:44:01.100Z,12.90
2022-11-24T10:47:04.499Z,10.77
2022-11-24T10:50:29.073Z,12.80
2022-11-24T10:53:33.250Z,10.70
2022-11-24T10:56:43.947Z,10.77
2022-11-24T10:59:46.969Z,12.05
2022-11-24T11:02:51.739Z,14.40
2022-11-24T11:06:18.301Z,12.00
2022-11-24T11:09:24.038Z,16.17
2022-11-24T11:12:46.019Z,11.38
2022-11-24T11:15:49.290Z,11.73
2022-11-24T11:18:52.684Z,12.95
2022-11-24T11:22:24.205Z,12.10
2022-11-24T11:25:34.056Z,13.33
2022-11-24T11:28:37.069Z,9.77
2022-11-24T11:31:41.595Z,11.12
2022-11-24T11:34:45.142Z,11.25
2022-11-24T11:37:49.513Z,13.17
2022-11-24T11:40:52.925Z,11.73
2022-11-24T11:44:29.313Z,10.55
2022-11-24T11:47:34.919Z,10.90
2022-11-24T11:51:21.034Z,10.38
2022-11-24T11:54:23.135Z,11.27
2022-11-24T11:58:08.223Z,9.87
2022-11-24T12:01:23.711Z,9.30
2022-11-24T12:04:41.980Z,10.73
2022-11-24T12:08:02.355Z,12.23
2022-11-24T12:11:20.295Z,8.80
2022-11-24T12:14:43.159Z,8.87
2022-11-24T12:17:56.026Z,9.05
2022-11-24T12:21:30.505Z,9.52
2022-11-24T12:25:05.499Z,9.73
2022-11-24T12:28:30.189Z,8.70
2022-11-24T12:31:46.985Z,11.43
2022-11-24T12:35:00.522Z,9.38
2022-11-24T12:38:32.311Z,9.13
2022-11-24T12:41:42.973Z,10.75
2022-11-24T12:45:14.467Z,10.10
2022-11-24T12:48:28.583Z,9.40
2022-11-24T12:51:43.029Z,9.68
2022-11-24T12:54:45.971Z,9.48
2022-11-24T12:58:24.673Z,9.60
2022-11-24T13:01:55.428Z,9.60
2022-11-24T13:05:17.934Z,8.10
2022-11-24T13:08:21.529Z,10.75
2022-11-24T13:11:24.835Z,9.07
2022-11-24T13:14:37.818Z,8.02
2022-11-24T13:17:59.473Z,9.40
2022-11-24T13:21:49.192Z,9.13
2022-11-24T13:25:15.440Z,7.68
2022-11-24T13:29:05.779Z,9.45
2022-11-24T13:32:09.204Z,10.18
2022-11-24T13:35:16.982Z,8.43
2022-11-24T13:38:40.245Z,8.07
2022-11-24T13:41:43.196Z,8.45
2022-11-24T13:44:48.171Z,8.82
2022-11-24T13:47:51.264Z,7.82
2022-11-24T13:50:54.608Z,9.80
2022-11-24T13:54:00.515Z,8.47
2022-11-24T13:57:42.015Z,10.20
2022-11-24T14:01:23.328Z,8.13
2022-11-24T14:04:31.173Z,7.78
2022-11-24T14:07:35.329Z,8.33
2022-11-24T14:10:38.581Z,9.77
2022-11-24T14:13:42.104Z,9.68
2022-11-24T14:16:45.352Z,8.07
2022-11-24T14:19:55.076Z,8.88
2022-11-24T14:22:58.758Z,9.23
2022-11-24T14:26:03.634Z,9.57
2022-11-24T14:29:20.578Z,12.82
2022-11-24T14:32:24.510Z,18.65
2022-11-24T14:35:36.133Z,16.73
2022-11-24T14:38:39.616Z,12.33
2022-11-24T14:41:44.734Z,11.37
2022-11-24T14:44:54.646Z,21.02
2022-11-24T14:47:57.739Z,25.55
2022-11-24T14:51:19.957Z,19.67
2022-11-24T14:54:25.038Z,19.00
2022-11-24T14:57:33.774Z,14.10
2022-11-24T15:00:37.212Z,15.15
2022-11-24T15:03:40.453Z,14.35
2022-11-24T15:06:45.888Z,17.30
2022-11-24T15:09:53.327Z,14.63
2022-11-24T15:13:01.195Z,11.83
2022-11-24T15:16:08.683Z,11.95
2022-11-24T15:19:15.729Z,13.55
2022-11-24T15:22:38.294Z,13.15
2022-11-24T15:25:41.401Z,15.63
2022-11-24T15:28:47.029Z,20.10
2022-11-24T15:31:52.895Z,18.42
2022-11-24T15:34:56.426Z,13.90
2022-11-24T15:37:59.787Z,12.13
2022-11-24T15:41:03.437Z,11.17
2022-11-24T15:44:06.741Z,10.83
2022-11-24T15:47:10.320Z,11.35
2022-11-24T15:50:14.911Z,12.07
2022-11-24T15:53:31.680Z,13.48
2022-11-24T15:56:37.188Z,17.80
2022-11-24T15:59:40.641Z,13.30
2022-11-24T16:02:44.238Z,13.82
2022-11-24T16:05:49.179Z,13.68
2022-11-24T16:08:53.288Z,12.65
2022-11-24T16:11:56.591Z,12.60
2022-11-24T16:14:59.679Z,18.40
2022-11-24T16:18:05.619Z,17.33
2022-11-24T16:21:09.860Z,13.32
2022-11-24T16:24:13.756Z,12.55
2022-11-24T16:27:16.950Z,14.37
2022-11-24T16:30:20.634Z,12.87
2022-11-24T16:33:24.182Z,15.30
2022-11-24T16:36:28.847Z,13.93
2022-11-24T16:39:32.653Z,13.73
2022-11-24T16:42:35.977Z,15.03
2022-11-24T16:45:45.010Z,11.00
2022-11-24T16:48:51.815Z,13.00
2022-11-24T16:51:54.920Z,14.95
2022-11-24T16:54:58.581Z,14.95
2022-11-24T16:58:05.422Z,15.77
2022-11-24T17:01:11.134Z,13.47
2022-11-24T17:04:15.290Z,15.15
2022-11-24T17:07:19.691Z,14.63
2022-11-24T17:10:23.463Z,16.58
2022-11-24T17:13:32.928Z,15.30
2022-11-24T17:16:39.568Z,15.93
2022-11-24T17:19:44.294Z,18.17
2022-11-24T17:22:47.816Z,18.42
2022-11-24T17:25:52.240Z,16.67
2022-11-24T17:28:56.792Z,17.60
2022-11-24T17:32:00.614Z,15.60
2022-11-24T17:35:04.124Z,17.37
2022-11-24T17:38:07.675Z,17.10
2022-11-24T17:41:11.794Z,16.58
2022-11-24T17:44:15.408Z,17.83
2022-11-24T17:47:19.228Z,16.97
2022-11-24T17:50:26.767Z,23.05
2022-11-24T17:53:30.944Z,16.20
2022-11-24T17:56:34.886Z,16.92
2022-11-24T17:59:39.165Z,19.80
2022-11-24T18:02:42.799Z,15.03
2022-11-24T18:05:46.746Z,15.50
2022-11-24T18:08:50.604Z,16.33
2022-11-24T18:11:54.743Z,15.77
2022-11-24T18:14:58.464Z,16.60
2022-11-24T18:18:03.869Z,14.43
2022-11-24T18:21:08.777Z,15.98
2022-11-24T18:24:14.182Z,18.87
2022-11-24T18:27:17.744Z,15.73
2022-11-24T18:30:21.760Z,16.07
2022-11-24T18:33:25.267Z,15.77
2022-11-24T18:36:30.810Z,15.65
2022-11-24T18:39:35.799Z,20.52
2022-11-24T18:42:39.592Z,18.00
2022-11-24T18:45:43.409Z,17.77
2022-11-24T18:48:47.679Z,16.73
2022-11-24T18:51:51.474Z,17.33
2022-11-24T18:54:55.293Z,16.15
2022-11-24T18:58:03.617Z,16.33
2022-11-24T19:01:15.645Z,17.40
2022-11-24T19:04:20.538Z,15.57
2022-11-24T19:07:24.461Z,16.00
2022-11-24T19:10:34.101Z,17.75
2022-11-24T19:13:40.296Z,15.85
2022-11-24T19:16:51.195Z,14.70
2022-11-24T19:19:55.009Z,15.63
2022-11-24T19:22:58.680Z,16.02
2022-11-24T19:26:08.879Z,15.02
2022-11-24T19:29:15.288Z,15.55
2022-11-24T19:32:20.778Z,16.00
2022-11-24T19:35:24.670Z,14.17
2022-11-24T19:38:31.204Z,17.77
2022-11-24T19:41:35.407Z,16.45
2022-11-24T19:44:39.324Z,15.68
2022-11-24T19:47:43.801Z,18.40
2022-11-24T19:50:48.385Z,16.93
2022-11-24T19:53:52.921Z,15.55
2022-11-24T19:56:57.139Z,14.65
2022-11-24T20:00:07.054Z,14.80
2022-11-24T20:03:11.380Z,14.43
2022-11-24T20:06:24.068Z,18.40
2022-11-24T20:09:37.949Z,17.83
2022-11-24T20:12:44.275Z,18.73
2022-11-24T20:15:50.535Z,18.12
2022-11-24T20:19:01.037Z,17.13
2022-11-24T20:22:05.119Z,17.67
2022-11-24T20:25:11.793Z,20.15
2022-11-24T20:28:16.293Z,16.48
2022-11-24T20:31:36.029Z,17.30
2022-11-24T20:34:39.526Z,15.97
2022-11-24T20:41:27.215Z,17.02
2022-11-24T20:44:34.987Z,16.15
2022-11-24T20:47:38.074Z,16.98
2022-11-24T20:50:51.018Z,18.93
2022-11-24T20:53:57.884Z,29.03
2022-11-24T20:57:01.456Z,22.00
2022-11-24T21:00:05.546Z,17.98
2022-11-24T21:03:08.914Z,17.08
2022-11-24T21:06:13.924Z,17.90
2022-11-24T21:09:20.356Z,15.80
2022-11-24T21:12:24.981Z,17.33
2022-11-24T21:15:29.860Z,16.80
2022-11-24T21:18:34.256Z,17.35
2022-11-24T21:21:38.293Z,16.87
2022-11-24T21:24:43.012Z,16.77
2022-11-24T21:27:46.519Z,17.92
2022-11-24T21:30:49.742Z,15.85
2022-11-24T21:33:56.987Z,18.12
2022-11-24T21:37:02.879Z,17.07
2022-11-24T21:40:07.209Z,19.43
2022-11-24T21:43:12.535Z,19.20
2022-11-24T21:46:16.342Z,15.98
2022-11-24T21:49:20.815Z,17.33
2022-11-24T21:52:23.793Z,16.90
2022-11-24T21:55:28.117Z,20.23
2022-11-24T21:58:32.543Z,16.45
2022-11-24T22:01:35.664Z,21.98
2022-11-24T22:04:38.765Z,16.95
2022-11-24T22:07:41.976Z,17.97
2022-11-24T22:10:44.915Z,18.67
2022-11-24T22:13:48.640Z,18.05
2022-11-24T22:16:51.605Z,18.37
2022-11-24T22:19:55.464Z,26.08
2022-11-24T22:22:58.603Z,18.60
2022-11-24T22:26:12.712Z,21.13
2022-11-24T22:29:15.992Z,25.10
2022-11-24T22:32:19.004Z,22.17
2022-11-24T22:35:21.992Z,23.92
2022-11-24T22:38:25.470Z,24.17
2022-11-24T22:41:28.406Z,22.00
2022-11-24T22:44:31.300Z,18.85
2022-11-24T22:47:34.096Z,19.98
2022-11-24T22:50:37.121Z,19.73
2022-11-24T22:53:40.315Z,17.00
2022-11-24T22:56:43.177Z,19.17
2022-11-24T22:59:46.589Z,17.92
2022-11-24T23:02:49.918Z,19.02
2022-11-24T23:05:52.974Z,19.70
2022-11-24T23:08:57.470Z,23.20
2022-11-24T23:12:00.396Z,21.53
2022-11-24T23:15:03.836Z,18.20
2022-11-24T23:18:06.806Z,19.23
2022-11-24T23:21:15.082Z,21.92
2022-11-24T23:24:18.044Z,22.97
2022-11-24T23:27:21.236Z,18.80
2022-11-24T23:30:24.313Z,20.90
2022-11-24T23:33:27.356Z,20.33
2022-11-24T23:36:31.116Z,18.50
2022-11-24T23:39:34.290Z,20.37
2022-11-24T23:42:37.238Z,19.23
2022-11-24T23:45:40.288Z,20.48
2022-11-24T23:48:43.888Z,21.02
2022-11-24T23:51:47.239Z,20.30
2022-11-24T23:55:05.770Z,16.53
2022-11-24T23:58:09.321Z,16.67
